createdAt,value
2019-03-04T00:01:21.596Z,98741.98
2019-03-04T00:03:52.183Z,98728.83
2019-03-04T00:06:22.758Z,98727.83
2019-03-04T00:08:53.000Z,98732.88
2019-03-04T00:11:23.224Z,98729.73
2019-03-04T00:13:53.428Z,98727.56
2019-03-04T00:16:23.666Z,98723.90
2019-03-04T00:18:53.905Z,98726.91
2019-03-04T00:21:24.173Z,98719.87
2019-03-04T00:23:54.354Z,98733.22
2019-03-04T00:26:24.594Z,98720.73
2019-03-04T00:28:55.085Z,98723.95
2019-03-04T00:31:25.315Z,98707.94
2019-03-04T00:33:55.614Z,98710.94
2019-03-04T00:36:25.781Z,98695.59
2019-03-04T00:38:56.000Z,98707.60
2019-03-04T00:41:26.308Z,98701.89
2019-03-04T00:43:56.530Z,98699.39
2019-03-04T00:46:26.728Z,98698.59
2019-03-04T00:48:57.193Z,98699.11
2019-03-04T00:51:27.397Z,98691.95
2019-03-04T00:53:57.650Z,98685.98
2019-03-04T00:56:28.255Z,98679.95
2019-03-04T00:58:58.477Z,98687.78
2019-03-04T01:01:29.008Z,98688.95
2019-03-04T01:03:59.231Z,98692.12
2019-03-04T01:06:29.495Z,98686.94
2019-03-04T01:09:00.198Z,98678.94
2019-03-04T01:11:30.573Z,98685.27
2019-03-04T01:14:00.808Z,98686.61
2019-03-04T01:16:31.138Z,98690.61
2019-03-04T01:19:01.645Z,98686.93
2019-03-04T01:21:31.949Z,98674.94
2019-03-04T01:24:02.464Z,98679.77
2019-03-04T01:26:32.878Z,98678.27
2019-03-04T01:29:03.095Z,98663.08
2019-03-04T01:31:33.342Z,98669.59
2019-03-04T01:34:03.774Z,98655.58
2019-03-04T01:36:34.072Z,98658.36
2019-03-04T01:39:04.877Z,98655.02
2019-03-04T01:41:35.290Z,98647.02
2019-03-04T01:44:05.886Z,98649.52
2019-03-04T01:46:36.343Z,98645.52
2019-03-04T01:49:06.613Z,98640.51
2019-03-04T01:51:36.957Z,98627.47
2019-03-04T01:54:08.508Z,98623.45
2019-03-04T01:56:38.958Z,98621.11
2019-03-04T01:59:09.437Z,98615.23
2019-03-04T02:01:39.592Z,98601.72
2019-03-04T02:04:09.893Z,98608.22
2019-03-04T02:06:40.608Z,98586.47
2019-03-04T02:09:11.458Z,98570.63
2019-03-04T02:11:41.822Z,98574.63
2019-03-04T02:14:12.017Z,98570.20
2019-03-04T02:16:42.624Z,98577.64
2019-03-04T02:19:13.468Z,98574.13
2019-03-04T02:21:44.346Z,98564.97
2019-03-04T02:24:25.941Z,98567.63
2019-03-04T02:26:57.903Z,98548.30
2019-03-04T02:29:28.916Z,98548.13
2019-03-04T02:31:59.299Z,98545.30
2019-03-04T02:34:29.991Z,98540.13
2019-03-04T02:37:01.672Z,98536.45
2019-03-04T02:39:32.182Z,98545.63
2019-03-04T02:42:02.345Z,98532.80
2019-03-04T02:44:32.508Z,98535.38
2019-03-04T02:47:03.273Z,98534.88
2019-03-04T02:49:33.524Z,98516.89
2019-03-04T02:52:03.759Z,98502.92
2019-03-04T02:54:34.439Z,98491.26
2019-03-04T02:57:04.638Z,98498.42
2019-03-04T02:59:35.130Z,98484.09
2019-03-04T03:02:07.107Z,98482.26
2019-03-04T03:04:37.293Z,98483.59
2019-03-04T03:07:07.787Z,98472.59
2019-03-04T03:09:38.010Z,98458.42
2019-03-04T03:12:08.219Z,98441.72
2019-03-04T03:14:38.552Z,98440.38
2019-03-04T03:17:08.783Z,98429.91
2019-03-04T03:19:39.295Z,98443.25
2019-03-04T03:22:09.806Z,98436.08
2019-03-04T03:24:40.056Z,98436.08
2019-03-04T03:27:10.554Z,98430.08
2019-03-04T03:29:40.699Z,98419.08
2019-03-04T03:32:11.021Z,98425.44
2019-03-04T03:34:41.255Z,98406.44
2019-03-04T03:37:11.425Z,98388.76
2019-03-04T03:39:41.651Z,98390.42
2019-03-04T03:42:11.846Z,98384.92
2019-03-04T03:44:42.046Z,98377.44
2019-03-04T03:47:12.859Z,98381.45
2019-03-04T03:49:43.069Z,98356.10
2019-03-04T03:52:13.314Z,98356.41
2019-03-04T03:54:43.675Z,98365.25
2019-03-04T03:57:13.902Z,98353.44
2019-03-04T03:59:44.127Z,98370.44
2019-03-04T04:02:14.434Z,98351.42
2019-03-04T04:04:44.665Z,98357.11
2019-03-04T04:07:14.970Z,98355.27
2019-03-04T04:09:45.309Z,98352.11
2019-03-04T04:12:15.526Z,98348.76
2019-03-04T04:14:45.747Z,98352.09
2019-03-04T04:17:16.001Z,98346.42
2019-03-04T04:19:46.388Z,98338.43
2019-03-04T04:22:16.632Z,98330.41
2019-03-04T04:24:46.846Z,98334.72
2019-03-04T04:27:17.328Z,98322.06
2019-03-04T04:29:47.792Z,98309.87
2019-03-04T04:32:18.122Z,98312.87
2019-03-04T04:34:49.375Z,98295.52
2019-03-04T04:37:20.142Z,98289.98
2019-03-04T04:39:50.426Z,98277.63
2019-03-04T04:42:20.555Z,98268.28
2019-03-04T04:44:50.765Z,98261.29
2019-03-04T04:47:21.319Z,98254.25
2019-03-04T04:49:51.784Z,98266.27
2019-03-04T04:52:23.369Z,98240.76
2019-03-04T04:54:53.934Z,98235.56
2019-03-04T04:57:24.130Z,98231.41
2019-03-04T04:59:54.486Z,98223.73
2019-03-04T05:02:24.700Z,98211.86
2019-03-04T05:04:54.939Z,98190.14
2019-03-04T05:07:25.532Z,98179.96
2019-03-04T05:09:56.180Z,98178.77
2019-03-04T05:12:26.388Z,98175.92
2019-03-04T05:14:56.738Z,98165.42
2019-03-04T05:17:26.955Z,98167.41
2019-03-04T05:19:57.198Z,98150.05
2019-03-04T05:22:27.810Z,98166.10
2019-03-04T05:24:58.093Z,98170.08
2019-03-04T05:27:28.347Z,98163.03
2019-03-04T05:29:58.579Z,98155.20
2019-03-04T05:32:28.776Z,98154.70
2019-03-04T05:34:59.111Z,98146.00
2019-03-04T05:37:29.338Z,98142.68
2019-03-04T05:39:59.548Z,98123.52
2019-03-04T05:42:29.833Z,98118.82
2019-03-04T05:45:00.321Z,98114.31
2019-03-04T05:47:30.834Z,98100.77
2019-03-04T05:50:01.379Z,98097.92
2019-03-04T05:52:31.893Z,98085.58
2019-03-04T05:55:02.142Z,98077.78
2019-03-04T05:57:32.352Z,98066.00
2019-03-04T06:00:02.875Z,98068.70
2019-03-04T06:02:33.253Z,98051.20
2019-03-04T06:05:03.473Z,98048.44
2019-03-04T06:07:46.213Z,98035.48
2019-03-04T06:10:16.461Z,98030.55
2019-03-04T06:12:47.009Z,98031.55
2019-03-04T06:15:18.884Z,98012.40
2019-03-04T06:17:49.104Z,97998.23
2019-03-04T06:20:19.698Z,97983.23
2019-03-04T06:22:50.226Z,97972.89
2019-03-04T06:25:22.867Z,97968.88
2019-03-04T06:27:53.038Z,97963.55
2019-03-04T06:30:25.336Z,97961.34
2019-03-04T06:32:55.586Z,97955.14
2019-03-04T06:35:25.829Z,97953.44
2019-03-04T06:37:56.515Z,97942.58
2019-03-04T06:40:27.174Z,97944.38
2019-03-04T06:42:57.673Z,97947.36
2019-03-04T06:45:29.641Z,97955.97
2019-03-04T06:48:00.055Z,97949.61
2019-03-04T06:50:51.824Z,97947.41
2019-03-04T06:53:47.714Z,97943.22
2019-03-04T06:56:36.771Z,97937.69
2019-03-04T06:59:14.876Z,97934.87
2019-03-04T07:01:49.029Z,97928.48
2019-03-04T07:04:47.104Z,97930.81
2019-03-04T07:07:17.396Z,97914.38
2019-03-04T07:09:47.584Z,97904.00
2019-03-04T07:12:18.214Z,97888.94
2019-03-04T07:14:49.439Z,97887.26
2019-03-04T07:17:19.656Z,97883.84
2019-03-04T07:20:02.647Z,97885.61
2019-03-04T07:22:33.377Z,97877.19
2019-03-04T07:25:03.638Z,97872.48
2019-03-04T07:27:34.807Z,97869.50
2019-03-04T07:30:06.122Z,97852.47
2019-03-04T07:32:36.559Z,97834.06
2019-03-04T07:35:07.597Z,97832.34
2019-03-04T07:37:37.872Z,97840.68
2019-03-04T07:40:10.136Z,97836.45
2019-03-04T07:42:40.491Z,97838.75
2019-03-04T07:45:11.253Z,97832.36
2019-03-04T07:47:41.513Z,97827.33
2019-03-04T07:50:12.366Z,97812.78
2019-03-04T07:52:42.611Z,97811.89
2019-03-04T07:55:13.114Z,97795.03
2019-03-04T07:57:43.670Z,97785.64
2019-03-04T08:00:14.073Z,97792.25
2019-03-04T08:02:44.658Z,97789.45
2019-03-04T08:05:15.120Z,97791.23
2019-03-04T08:07:47.766Z,97792.66
2019-03-04T08:10:33.909Z,97780.17
2019-03-04T08:13:10.577Z,97771.28
2019-03-04T08:15:43.471Z,97768.73
2019-03-04T08:18:13.771Z,97759.44
2019-03-04T08:20:44.194Z,97743.51
2019-03-04T08:23:15.263Z,97730.45
2019-03-04T08:25:45.710Z,97740.77
2019-03-04T08:28:16.728Z,97740.25
2019-03-04T08:30:47.464Z,97728.30
2019-03-04T08:33:17.664Z,97716.50
2019-03-04T08:35:47.912Z,97713.39
2019-03-04T08:38:18.857Z,97702.25
2019-03-04T08:40:49.073Z,97681.08
2019-03-04T08:43:19.495Z,97683.44
2019-03-04T08:45:49.932Z,97680.35
2019-03-04T08:48:20.457Z,97656.44
2019-03-04T08:50:50.683Z,97648.83
2019-03-04T08:53:21.217Z,97656.11
2019-03-04T08:55:51.641Z,97652.09
2019-03-04T08:58:22.259Z,97655.39
2019-03-04T09:00:52.478Z,97653.13
2019-03-04T09:03:22.745Z,97625.02
2019-03-04T09:05:52.965Z,97617.14
2019-03-04T09:08:23.230Z,97603.86
2019-03-04T09:10:53.424Z,97599.67
2019-03-04T09:13:24.136Z,97614.52
2019-03-04T09:15:54.493Z,97618.93
2019-03-04T09:18:24.890Z,97618.93
2019-03-04T09:20:55.036Z,97751.52
2019-03-04T09:23:25.407Z,97741.20
2019-03-04T09:25:59.963Z,97723.03
2019-03-04T09:28:30.124Z,97731.34
2019-03-04T09:31:01.070Z,97711.69
2019-03-04T09:33:31.182Z,97708.25
2019-03-04T09:36:01.841Z,97703.12
2019-03-04T09:38:35.788Z,97719.89
2019-03-04T09:41:06.048Z,97743.64
2019-03-04T09:43:36.208Z,97769.08
2019-03-04T09:46:06.517Z,97760.27
2019-03-04T09:48:36.748Z,97766.09
2019-03-04T09:51:06.927Z,97751.81
2019-03-04T09:53:39.643Z,97757.12
2019-03-04T09:56:09.126Z,97747.45
2019-03-04T09:58:39.586Z,97731.02
2019-03-04T10:01:20.440Z,97708.92
2019-03-04T10:04:32.226Z,97684.35
2019-03-04T10:07:16.415Z,97693.98
2019-03-04T10:10:33.353Z,97678.20
2019-03-04T10:13:40.833Z,97666.08
2019-03-04T10:16:28.851Z,97676.06
2019-03-04T10:19:40.553Z,97692.99
2019-03-04T10:22:19.994Z,97696.47
2019-03-04T10:24:57.846Z,97696.19
2019-03-04T10:28:16.200Z,97671.52
2019-03-04T10:31:12.040Z,97668.13
2019-03-04T10:34:05.634Z,97678.53
2019-03-04T10:37:03.008Z,97677.66
2019-03-04T10:39:59.527Z,97692.66
2019-03-04T10:43:09.207Z,97696.52
2019-03-04T10:46:05.305Z,97678.88
2019-03-04T10:48:35.521Z,97672.98
2019-03-04T10:51:05.766Z,97673.03
2019-03-04T10:53:35.987Z,97666.70
2019-03-04T10:56:06.400Z,97667.06
2019-03-04T10:58:36.746Z,97647.52
2019-03-04T11:01:06.952Z,97665.06
2019-03-04T11:03:40.474Z,97644.89
2019-03-04T11:06:12.326Z,97639.16
2019-03-04T11:08:42.529Z,97651.88
2019-03-04T11:11:12.784Z,97637.78
2019-03-04T11:13:43.277Z,97636.31
2019-03-04T11:16:13.533Z,97644.48
2019-03-04T11:18:43.978Z,97647.97
2019-03-04T11:21:14.178Z,97625.98
2019-03-04T11:23:44.485Z,97635.95
2019-03-04T11:26:14.738Z,97609.31
2019-03-04T11:28:45.360Z,97627.95
2019-03-04T11:31:15.778Z,97623.27
2019-03-04T11:33:46.564Z,97624.09
2019-03-04T11:36:16.829Z,97641.55
2019-03-04T11:38:49.198Z,97647.61
2019-03-04T11:41:23.067Z,97654.89
2019-03-04T11:43:53.237Z,97669.22
2019-03-04T11:46:24.513Z,97665.08
2019-03-04T11:48:55.647Z,97675.38
2019-03-04T11:51:25.836Z,97678.20
2019-03-04T11:53:56.303Z,97689.28
2019-03-04T11:56:26.551Z,97706.81
2019-03-04T11:58:56.711Z,97726.30
2019-03-04T12:01:34.002Z,97741.28
2019-03-04T12:04:04.292Z,97735.65
2019-03-04T12:06:34.477Z,97732.43
2019-03-04T12:09:07.443Z,97728.44
2019-03-04T12:11:38.430Z,97743.83
2019-03-04T12:14:08.710Z,97730.52
2019-03-04T12:16:40.430Z,97728.15
2019-03-04T12:19:10.888Z,97751.38
2019-03-04T12:21:41.119Z,97750.55
2019-03-04T12:24:11.450Z,97755.34
2019-03-04T12:26:41.853Z,97742.77
2019-03-04T12:29:12.411Z,97760.48
2019-03-04T12:31:56.288Z,97763.66
2019-03-04T12:34:26.480Z,97741.18
2019-03-04T12:36:56.760Z,97742.19
2019-03-04T12:39:26.972Z,97750.98
2019-03-04T12:41:57.555Z,97748.22
2019-03-04T12:44:29.631Z,97746.73
2019-03-04T12:46:59.827Z,97744.41
2019-03-04T12:49:30.058Z,97747.67
2019-03-04T12:52:00.892Z,97748.54
2019-03-04T12:54:31.315Z,97747.50
2019-03-04T12:57:01.518Z,97742.58
2019-03-04T12:59:31.763Z,97758.77
2019-03-04T13:02:02.377Z,97747.34
2019-03-04T13:04:32.715Z,97768.64
2019-03-04T13:07:04.164Z,97751.95
2019-03-04T13:09:34.348Z,97740.72
2019-03-04T13:12:04.504Z,97749.08
2019-03-04T13:14:35.000Z,97761.96
2019-03-04T13:17:05.265Z,97730.03
2019-03-04T13:19:35.492Z,97730.80
2019-03-04T13:22:08.718Z,97727.70
2019-03-04T13:24:37.991Z,97723.87
2019-03-04T13:27:08.558Z,97723.56
2019-03-04T13:29:38.783Z,97715.36
2019-03-04T13:32:09.042Z,97735.63
2019-03-04T13:34:39.509Z,97728.34
2019-03-04T13:37:10.288Z,97741.60
2019-03-04T13:39:40.500Z,97711.70
2019-03-04T13:42:10.885Z,97725.26
2019-03-04T13:44:41.578Z,97740.18
2019-03-04T13:47:11.786Z,97735.58
2019-03-04T13:49:41.937Z,97749.84
2019-03-04T13:52:12.345Z,97734.59
2019-03-04T13:54:42.643Z,97763.66
2019-03-04T13:57:13.433Z,97746.91
2019-03-04T13:59:44.712Z,97740.64
2019-03-04T14:02:14.891Z,97734.88
2019-03-04T14:04:45.383Z,97738.98
2019-03-04T14:07:15.991Z,97741.47
2019-03-04T14:09:46.507Z,97745.29
2019-03-04T14:12:16.718Z,97722.09
2019-03-04T14:14:47.141Z,97734.70
2019-03-04T14:17:20.564Z,97745.98
2019-03-04T14:19:51.126Z,97747.61
2019-03-04T14:22:21.407Z,97736.28
2019-03-04T14:24:51.790Z,97746.81
2019-03-04T14:27:22.039Z,97745.77
2019-03-04T14:29:52.675Z,97755.36
2019-03-04T14:32:23.127Z,97731.95
2019-03-04T14:34:53.740Z,97745.13
2019-03-04T14:37:24.289Z,97730.95
2019-03-04T14:39:54.636Z,97743.34
2019-03-04T14:42:26.392Z,97745.76
2019-03-04T14:44:57.129Z,97738.89
2019-03-04T14:47:27.298Z,97736.66
2019-03-04T14:50:09.198Z,97738.64
2019-03-04T14:52:30.316Z,97730.37
2019-03-04T14:55:00.567Z,97731.41
2019-03-04T14:57:31.074Z,97737.07
2019-03-04T15:00:01.787Z,97732.63
2019-03-04T15:02:32.413Z,97732.83
2019-03-04T15:05:04.987Z,97720.27
2019-03-04T15:07:36.230Z,97709.00
2019-03-04T15:10:07.183Z,97728.44
2019-03-04T15:12:37.418Z,97731.02
2019-03-04T15:15:07.916Z,97737.09
2019-03-04T15:17:38.663Z,97739.55
2019-03-04T15:20:10.656Z,97733.91
2019-03-04T15:22:40.918Z,97725.75
2019-03-04T15:25:12.798Z,97731.20
2019-03-04T15:27:43.160Z,97726.58
2019-03-04T15:30:13.568Z,97732.69
2019-03-04T15:32:43.851Z,97730.36
2019-03-04T15:35:14.434Z,97732.28
2019-03-04T15:37:47.478Z,97735.40
2019-03-04T15:40:18.569Z,97739.19
2019-03-04T15:42:50.930Z,97734.83
2019-03-04T15:45:24.141Z,97735.14
2019-03-04T15:47:56.369Z,97705.13
2019-03-04T15:50:28.487Z,97739.34
2019-03-04T15:53:00.106Z,97729.39
2019-03-04T15:55:31.160Z,97739.98
2019-03-04T15:58:01.462Z,97733.37
2019-03-04T16:00:31.785Z,97732.05
2019-03-04T16:03:02.308Z,97738.51
2019-03-04T16:05:32.866Z,97750.30
2019-03-04T16:08:07.503Z,97737.06
2019-03-04T16:10:37.223Z,97727.42
2019-03-04T16:13:08.411Z,97730.78
2019-03-04T16:15:40.401Z,97734.41
2019-03-04T16:18:10.987Z,97748.97
2019-03-04T16:20:41.395Z,97728.47
2019-03-04T16:23:11.807Z,97739.34
2019-03-04T16:25:42.222Z,97728.29
2019-03-04T16:28:17.518Z,97742.84
2019-03-04T16:30:49.432Z,97739.39
2019-03-04T16:33:20.005Z,97716.27
2019-03-04T16:35:53.258Z,97719.54
2019-03-04T16:38:23.574Z,97759.31
2019-03-04T16:40:54.092Z,97766.11
2019-03-04T16:43:24.573Z,97782.19
2019-03-04T16:45:54.969Z,97757.73
2019-03-04T16:48:25.246Z,97789.69
2019-03-04T16:50:55.489Z,97772.32
2019-03-04T16:53:26.594Z,97785.90
2019-03-04T16:55:56.790Z,97782.60
2019-03-04T16:58:28.421Z,97785.25
2019-03-04T17:00:58.923Z,97788.66
2019-03-04T17:03:29.318Z,97783.02
2019-03-04T17:06:00.430Z,97784.00
2019-03-04T17:08:30.755Z,97818.11
2019-03-04T17:11:00.977Z,97797.41
2019-03-04T17:13:31.822Z,97806.83
2019-03-04T17:16:02.146Z,97812.63
2019-03-04T17:18:32.675Z,97818.94
2019-03-04T17:21:05.050Z,97839.97
2019-03-04T17:23:35.580Z,97847.08
2019-03-04T17:26:05.931Z,97858.52
2019-03-04T17:28:37.005Z,97848.91
2019-03-04T17:31:07.494Z,97863.13
2019-03-04T17:33:38.027Z,97859.16
2019-03-04T17:36:08.313Z,97861.31
2019-03-04T17:38:38.691Z,97863.62
2019-03-04T17:41:09.002Z,97870.41
2019-03-04T17:43:39.337Z,97871.05
2019-03-04T17:46:09.795Z,97882.59
2019-03-04T17:48:40.005Z,97871.66
2019-03-04T17:51:10.535Z,97877.80
2019-03-04T17:53:40.725Z,97895.84
2019-03-04T17:56:11.332Z,97896.55
2019-03-04T17:58:41.816Z,97876.69
2019-03-04T18:01:12.376Z,97906.81
2019-03-04T18:03:42.550Z,97913.77
2019-03-04T18:06:12.839Z,97932.98
2019-03-04T18:08:43.206Z,97935.79
2019-03-04T18:11:13.417Z,97927.69
2019-03-04T18:13:43.582Z,97940.94
2019-03-04T18:16:13.860Z,97917.74
2019-03-04T18:18:44.087Z,97918.91
2019-03-04T18:21:14.858Z,97933.82
2019-03-04T18:23:45.188Z,97976.05
2019-03-04T18:26:39.717Z,97962.80
2019-03-04T18:29:21.926Z,97980.52
2019-03-04T18:32:19.208Z,97952.36
2019-03-04T18:35:29.540Z,97962.95
2019-03-04T18:38:23.424Z,97976.05
2019-03-04T18:41:38.032Z,97975.22
2019-03-04T18:44:40.984Z,97973.40
2019-03-04T18:48:04.516Z,98002.88
2019-03-04T18:50:35.193Z,98001.22
2019-03-04T18:53:05.526Z,98004.55
2019-03-04T18:55:37.491Z,97995.27
2019-03-04T18:58:09.080Z,98005.22
2019-03-04T19:00:39.469Z,98009.91
2019-03-04T19:03:12.044Z,98000.30
2019-03-04T19:05:42.671Z,98020.36
2019-03-04T19:08:14.430Z,98009.91
2019-03-04T19:10:44.957Z,98010.74
2019-03-04T19:13:17.607Z,98039.05
2019-03-04T19:15:48.013Z,98036.59
2019-03-04T19:18:18.572Z,98039.24
2019-03-04T19:20:50.045Z,98057.83
2019-03-04T19:23:24.422Z,98054.05
2019-03-04T19:25:58.361Z,98058.39
2019-03-04T19:28:29.223Z,98052.11
2019-03-04T19:31:00.327Z,98059.08
2019-03-04T19:33:31.830Z,98081.79
2019-03-04T19:36:02.341Z,98060.13
2019-03-04T19:38:32.561Z,98096.97
2019-03-04T19:41:03.176Z,98092.20
2019-03-04T19:43:35.647Z,98091.06
2019-03-04T19:46:06.669Z,98076.48
2019-03-04T19:48:42.199Z,98094.62
2019-03-04T19:51:14.632Z,98099.80
2019-03-04T19:53:48.707Z,98125.73
2019-03-04T19:56:20.913Z,98132.41
2019-03-04T19:58:51.389Z,98155.02
2019-03-04T20:01:21.559Z,98175.28
2019-03-04T20:03:52.970Z,98135.16
2019-03-04T20:06:23.817Z,98150.77
2019-03-04T20:08:54.466Z,98163.41
2019-03-04T20:11:24.619Z,98172.55
2019-03-04T20:13:54.810Z,98177.20
2019-03-04T20:16:25.063Z,98171.41
2019-03-04T20:18:55.344Z,98216.87
2019-03-04T20:21:25.597Z,98221.23
2019-03-04T20:23:55.805Z,98204.33
2019-03-04T20:26:27.580Z,98210.96
2019-03-04T20:28:58.046Z,98210.32
2019-03-04T20:31:28.183Z,98210.66
2019-03-04T20:33:58.455Z,98231.39
2019-03-04T20:36:29.286Z,98227.27
2019-03-04T20:38:59.784Z,98239.05
2019-03-04T20:41:30.019Z,98233.89
2019-03-04T20:44:00.763Z,98253.78
2019-03-04T20:46:31.071Z,98255.95
2019-03-04T20:49:01.437Z,98228.44
2019-03-04T20:51:32.231Z,98220.48
2019-03-04T20:54:02.540Z,98262.77
2019-03-04T20:56:33.025Z,98254.81
2019-03-04T20:59:03.370Z,98267.12
2019-03-04T21:01:33.612Z,98283.88
2019-03-04T21:04:04.339Z,98296.30
2019-03-04T21:06:34.608Z,98294.34
2019-03-04T21:09:06.247Z,98270.46
2019-03-04T21:11:36.496Z,98305.78
2019-03-04T21:14:07.193Z,98317.23
2019-03-04T21:16:37.601Z,98304.66
2019-03-04T21:19:09.287Z,98315.11
2019-03-04T21:21:39.520Z,98313.98
2019-03-04T21:24:09.859Z,98313.00
2019-03-04T21:26:46.483Z,98310.34
2019-03-04T21:29:30.069Z,98304.42
2019-03-04T21:32:33.266Z,98332.97
2019-03-04T21:35:26.211Z,98331.30
2019-03-04T21:37:56.545Z,98349.88
2019-03-04T21:40:55.537Z,98333.61
2019-03-04T21:43:39.477Z,98337.59
2019-03-04T21:46:42.028Z,98368.45
2019-03-04T21:49:15.129Z,98367.77
2019-03-04T21:52:38.492Z,98360.75
2019-03-04T21:55:15.323Z,98374.02
2019-03-04T21:57:48.595Z,98375.16
2019-03-04T22:00:30.976Z,98362.37
2019-03-04T22:03:22.219Z,98409.99
2019-03-04T22:05:52.753Z,98373.48
2019-03-04T22:08:23.691Z,98363.86
2019-03-04T22:10:54.579Z,98393.23
2019-03-04T22:13:24.931Z,98394.56
2019-03-04T22:15:55.224Z,98399.19
2019-03-04T22:18:25.476Z,98383.27
2019-03-04T22:20:55.833Z,98404.15
2019-03-04T22:23:26.353Z,98398.50
2019-03-04T22:26:01.852Z,98416.37
2019-03-04T22:28:30.512Z,98399.13
2019-03-04T22:31:00.743Z,98408.08
2019-03-04T22:33:31.043Z,98422.93
2019-03-04T22:36:01.396Z,98419.44
2019-03-04T22:38:31.560Z,98431.18
2019-03-04T22:41:02.131Z,98448.23
2019-03-04T22:43:33.353Z,98445.08
2019-03-04T22:46:03.802Z,98449.95
2019-03-04T22:48:33.985Z,98435.51
2019-03-04T22:51:04.243Z,98445.77
2019-03-04T22:53:34.504Z,98455.06
2019-03-04T22:56:04.742Z,98436.64
2019-03-04T22:58:35.052Z,98448.92
2019-03-04T23:02:02.767Z,98464.00
2019-03-04T23:05:08.493Z,98474.31
2019-03-04T23:07:41.572Z,98458.89
2019-03-04T23:10:15.042Z,98488.27
2019-03-04T23:12:53.336Z,98471.52
2019-03-04T23:15:23.977Z,98482.13
2019-03-04T23:17:54.475Z,98478.88
2019-03-04T23:20:25.019Z,98484.37
2019-03-04T23:22:55.341Z,98491.56
2019-03-04T23:25:25.662Z,98494.70
2019-03-04T23:27:55.838Z,98497.16
2019-03-04T23:30:26.048Z,98493.87
2019-03-04T23:32:56.218Z,98516.62
2019-03-04T23:35:26.936Z,98522.21
2019-03-04T23:37:57.447Z,98512.30
2019-03-04T23:40:27.666Z,98508.80
2019-03-04T23:42:57.829Z,98534.35
2019-03-04T23:45:28.412Z,98515.18
2019-03-04T23:47:58.847Z,98521.67
2019-03-04T23:50:29.134Z,98560.98
2019-03-04T23:53:03.712Z,98527.52
2019-03-04T23:55:33.882Z,98531.84
2019-03-04T23:58:04.307Z,98513.27
